createdAt,value
2019-05-13T00:00:34.093Z,59.76
2019-05-13T00:03:21.287Z,59.93
2019-05-13T00:06:08.767Z,60.02
2019-05-13T00:08:56.185Z,60.15
2019-05-13T00:11:43.848Z,60.36
2019-05-13T00:14:34.374Z,60.83
2019-05-13T00:17:23.555Z,60.78
2019-05-13T00:20:10.495Z,61.03
2019-05-13T00:22:58.069Z,60.64
2019-05-13T00:25:45.294Z,60.25
2019-05-13T00:28:34.264Z,60.45
2019-05-13T00:31:24.148Z,60.65
2019-05-13T00:34:11.060Z,60.67
2019-05-13T00:37:08.774Z,60.97
2019-05-13T00:39:47.982Z,60.78
2019-05-13T00:42:37.830Z,60.57
2019-05-13T00:45:25.761Z,60.46
2019-05-13T00:48:14.264Z,60.55
2019-05-13T00:51:03.786Z,59.98
2019-05-13T00:53:53.644Z,60.37
2019-05-13T00:56:40.684Z,60.74
2019-05-13T00:59:27.781Z,61.30
2019-05-13T01:02:15.228Z,61.38
2019-05-13T01:05:04.293Z,61.62
2019-05-13T01:07:53.676Z,62.19
2019-05-13T01:10:40.739Z,62.62
2019-05-13T01:13:28.242Z,62.96
2019-05-13T01:16:15.962Z,63.34
2019-05-13T01:19:04.307Z,63.61
2019-05-13T01:21:54.017Z,63.83
2019-05-13T01:24:40.842Z,63.81
2019-05-13T01:27:28.158Z,63.98
2019-05-13T01:30:16.547Z,64.47
2019-05-13T01:33:04.612Z,64.50
2019-05-13T01:35:53.825Z,64.65
2019-05-13T01:38:43.589Z,64.38
2019-05-13T01:41:33.375Z,64.88
2019-05-13T01:44:20.606Z,64.95
2019-05-13T01:47:07.872Z,65.06
2019-05-13T01:49:55.281Z,65.12
2019-05-13T01:52:44.553Z,65.10
2019-05-13T01:55:33.976Z,64.99
2019-05-13T01:58:20.664Z,65.29
2019-05-13T02:01:08.097Z,65.67
2019-05-13T02:03:55.358Z,65.57
2019-05-13T02:06:44.339Z,65.45
2019-05-13T02:09:33.681Z,65.53
2019-05-13T02:12:24.032Z,65.37
2019-05-13T02:15:10.768Z,65.47
2019-05-13T02:18:00.455Z,65.53
2019-05-13T02:20:48.082Z,65.75
2019-05-13T02:23:35.385Z,65.61
2019-05-13T02:26:24.066Z,65.33
2019-05-13T02:29:14.148Z,66.09
2019-05-13T02:32:02.777Z,65.99
2019-05-13T02:34:53.078Z,65.93
2019-05-13T02:37:42.958Z,65.87
2019-05-13T02:40:28.329Z,65.84
2019-05-13T02:43:16.299Z,66.22
2019-05-13T02:46:04.672Z,66.31
2019-05-13T02:48:52.903Z,66.72
2019-05-13T02:51:42.983Z,66.54
2019-05-13T02:54:29.449Z,67.12
2019-05-13T02:57:16.829Z,67.72
2019-05-13T03:00:05.116Z,67.48
2019-05-13T03:02:52.739Z,66.95
2019-05-13T03:05:42.839Z,66.75
2019-05-13T03:08:40.854Z,67.03
2019-05-13T03:11:22.525Z,67.31
2019-05-13T03:14:08.630Z,66.84
2019-05-13T03:17:24.007Z,66.92
2019-05-13T03:20:16.406Z,67.70
2019-05-13T03:23:03.103Z,67.13
2019-05-13T03:25:53.292Z,66.87
2019-05-13T03:28:38.787Z,67.32
2019-05-13T03:31:27.022Z,67.72
2019-05-13T03:34:16.472Z,67.96
2019-05-13T03:37:07.082Z,67.72
2019-05-13T03:39:55.519Z,67.14
2019-05-13T03:42:44.090Z,67.06
2019-05-13T03:45:32.695Z,66.81
2019-05-13T03:48:23.557Z,66.51
2019-05-13T03:51:13.214Z,66.71
2019-05-13T03:54:03.173Z,66.63
2019-05-13T03:56:52.781Z,66.76
2019-05-13T03:59:43.322Z,67.60
2019-05-13T04:02:32.539Z,67.29
2019-05-13T04:05:22.841Z,66.94
2019-05-13T04:08:09.311Z,66.86
2019-05-13T04:10:56.877Z,66.66
2019-05-13T04:13:45.776Z,65.95
2019-05-13T04:16:33.286Z,65.57
2019-05-13T04:19:23.184Z,65.80
2019-05-13T04:22:12.936Z,65.12
2019-05-13T04:25:02.495Z,65.38
2019-05-13T04:27:52.208Z,65.08
2019-05-13T04:30:38.203Z,65.04
2019-05-13T04:33:25.956Z,64.20
2019-05-13T04:36:13.968Z,63.98
2019-05-13T04:39:03.231Z,63.81
2019-05-13T04:41:52.921Z,63.98
2019-05-13T04:44:42.796Z,64.12
2019-05-13T04:47:32.820Z,63.31
2019-05-13T04:50:18.523Z,63.18
2019-05-13T04:53:05.996Z,63.10
2019-05-13T04:55:53.095Z,62.87
2019-05-13T04:58:42.843Z,62.20
2019-05-13T05:01:53.207Z,60.26
2019-05-13T05:04:43.685Z,57.03
2019-05-13T05:07:42.192Z,53.35
2019-05-13T05:11:22.225Z,54.74
2019-05-13T05:14:24.126Z,51.86
2019-05-13T05:18:02.600Z,48.22
2019-05-13T05:21:01.459Z,47.65
2019-05-13T05:24:12.956Z,47.18
2019-05-13T05:27:27.320Z,47.52
2019-05-13T05:30:55.071Z,51.60
2019-05-13T05:34:06.786Z,52.34
2019-05-13T05:37:23.094Z,54.68
2019-05-13T05:40:12.319Z,54.89
2019-05-13T05:43:02.526Z,52.13
2019-05-13T05:45:51.623Z,51.92
2019-05-13T05:48:42.005Z,52.47
2019-05-13T05:51:31.463Z,51.52
2019-05-13T05:54:21.864Z,52.96
2019-05-13T05:57:12.111Z,52.22
2019-05-13T06:00:02.298Z,51.82
2019-05-13T06:02:53.140Z,50.31
2019-05-13T06:05:41.904Z,50.55
2019-05-13T06:08:29.181Z,49.31
2019-05-13T06:11:16.958Z,53.53
2019-05-13T06:14:04.430Z,51.51
2019-05-13T06:16:52.016Z,49.60
2019-05-13T06:19:41.857Z,49.98
2019-05-13T06:22:31.924Z,51.75
2019-05-13T06:25:22.991Z,50.23
2019-05-13T06:28:07.800Z,51.52
2019-05-13T06:30:55.387Z,51.20
2019-05-13T06:33:42.463Z,51.67
2019-05-13T06:36:31.628Z,50.87
2019-05-13T06:39:19.272Z,51.44
2019-05-13T06:42:06.903Z,52.08
2019-05-13T06:44:54.597Z,52.74
2019-05-13T06:47:42.094Z,52.84
2019-05-13T06:50:29.609Z,52.71
2019-05-13T06:53:17.020Z,52.12
2019-05-13T06:56:04.722Z,52.45
2019-05-13T06:58:52.816Z,53.42
2019-05-13T07:01:42.207Z,53.49
2019-05-13T07:04:28.760Z,53.07
2019-05-13T07:07:17.441Z,52.43
2019-05-13T07:10:05.824Z,52.70
2019-05-13T07:12:52.912Z,52.95
2019-05-13T07:15:41.670Z,52.59
2019-05-13T07:18:29.502Z,52.49
2019-05-13T07:21:16.703Z,52.29
2019-05-13T07:24:04.453Z,52.00
2019-05-13T07:26:52.438Z,51.38
2019-05-13T07:29:42.189Z,51.06
2019-05-13T07:32:31.299Z,51.24
2019-05-13T07:35:17.813Z,50.58
2019-05-13T07:38:05.437Z,50.04
2019-05-13T07:41:04.529Z,49.35
2019-05-13T07:43:52.165Z,48.49
2019-05-13T07:46:39.586Z,47.72
2019-05-13T07:49:26.925Z,47.60
2019-05-13T07:52:14.251Z,45.11
2019-05-13T07:55:01.953Z,45.14
2019-05-13T07:57:51.364Z,43.57
2019-05-13T08:00:38.529Z,43.69
2019-05-13T08:03:26.175Z,43.34
2019-05-13T08:06:13.692Z,42.87
2019-05-13T08:09:01.873Z,43.45
2019-05-13T08:12:02.293Z,39.43
2019-05-13T08:14:43.282Z,41.34
2019-05-13T08:17:28.658Z,39.65
2019-05-13T08:20:16.446Z,40.58
2019-05-13T08:23:04.119Z,42.47
2019-05-13T08:25:52.208Z,42.29
2019-05-13T08:28:53.902Z,42.46
2019-05-13T08:31:28.803Z,44.29
2019-05-13T08:34:16.091Z,43.97
2019-05-13T08:37:03.813Z,42.80
2019-05-13T08:39:52.155Z,43.63
2019-05-13T08:42:41.576Z,43.83
2019-05-13T08:45:31.507Z,44.06
2019-05-13T08:48:22.033Z,41.87
2019-05-13T08:51:11.560Z,41.79
2019-05-13T08:53:58.118Z,41.95
2019-05-13T08:56:45.774Z,41.16
2019-05-13T08:59:32.878Z,41.27
2019-05-13T09:02:22.234Z,41.79
2019-05-13T09:05:12.060Z,41.65
2019-05-13T09:08:01.319Z,42.02
2019-05-13T09:10:49.163Z,42.19
2019-05-13T09:13:36.708Z,42.86
2019-05-13T09:16:24.329Z,42.47
2019-05-13T09:19:15.833Z,42.53
2019-05-13T09:22:02.911Z,42.87
2019-05-13T09:24:52.824Z,42.31
2019-05-13T09:27:39.092Z,41.88
2019-05-13T09:30:27.423Z,41.14
2019-05-13T09:33:15.635Z,40.61
2019-05-13T09:36:03.158Z,39.56
2019-05-13T09:38:52.459Z,39.65
2019-05-13T09:41:43.681Z,39.07
2019-05-13T09:44:28.907Z,39.01
2019-05-13T09:47:16.359Z,39.04
2019-05-13T09:50:04.795Z,38.42
2019-05-13T09:52:52.309Z,37.21
2019-05-13T09:55:41.460Z,37.43
2019-05-13T09:58:32.164Z,37.40
2019-05-13T10:01:17.829Z,37.60
2019-05-13T10:04:05.322Z,37.52
2019-05-13T10:06:53.051Z,37.00
2019-05-13T10:09:42.566Z,36.33
2019-05-13T10:12:31.758Z,36.96
2019-05-13T10:15:18.248Z,36.98
2019-05-13T10:18:05.851Z,38.05
2019-05-13T10:20:58.620Z,38.01
2019-05-13T10:23:44.822Z,37.51
2019-05-13T10:26:32.292Z,36.57
2019-05-13T10:29:22.312Z,37.63
2019-05-13T10:32:09.066Z,37.00
2019-05-13T10:34:57.433Z,36.94
2019-05-13T10:37:45.677Z,36.80
2019-05-13T10:40:33.132Z,35.81
2019-05-13T10:43:30.911Z,36.62
2019-05-13T10:46:12.781Z,37.20
2019-05-13T10:49:01.741Z,36.59
2019-05-13T10:51:48.180Z,36.37
2019-05-13T10:54:35.987Z,35.59
2019-05-13T10:57:23.725Z,35.72
2019-05-13T11:00:12.438Z,36.18
2019-05-13T11:03:00.157Z,36.27
2019-05-13T11:05:52.246Z,36.98
2019-05-13T11:08:38.105Z,37.31
2019-05-13T11:11:26.005Z,36.96
2019-05-13T11:14:15.742Z,37.02
2019-05-13T11:17:07.813Z,36.95
2019-05-13T11:19:55.565Z,36.72
2019-05-13T11:22:43.217Z,37.19
2019-05-13T11:25:32.388Z,37.17
2019-05-13T11:28:20.381Z,36.78
2019-05-13T11:31:07.818Z,37.04
2019-05-13T11:33:55.294Z,36.59
2019-05-13T11:36:43.418Z,37.22
2019-05-13T11:39:32.557Z,36.58
2019-05-13T11:42:22.722Z,35.82
2019-05-13T11:45:11.784Z,36.43
2019-05-13T11:48:02.229Z,37.49
2019-05-13T11:50:51.423Z,36.75
2019-05-13T11:53:38.601Z,37.42
2019-05-13T11:56:26.099Z,37.42
2019-05-13T11:59:14.301Z,36.26
2019-05-13T12:02:04.423Z,36.04
2019-05-13T12:04:53.592Z,36.78
2019-05-13T12:07:42.075Z,36.00
2019-05-13T12:10:32.472Z,36.06
2019-05-13T12:13:18.508Z,35.68
2019-05-13T12:16:06.273Z,36.80
2019-05-13T12:18:53.779Z,37.39
2019-05-13T12:21:45.874Z,35.59
2019-05-13T12:24:30.230Z,35.42
2019-05-13T12:27:17.806Z,35.35
2019-05-13T12:30:05.511Z,35.27
2019-05-13T12:32:53.186Z,35.32
2019-05-13T12:35:42.855Z,35.33
2019-05-13T12:38:33.066Z,35.45
2019-05-13T12:41:22.768Z,35.18
2019-05-13T12:44:09.114Z,35.52
2019-05-13T12:46:56.723Z,36.81
2019-05-13T12:49:44.264Z,36.85
2019-05-13T12:52:32.691Z,37.10
2019-05-13T12:55:21.801Z,36.55
2019-05-13T12:58:12.072Z,37.00
2019-05-13T13:01:01.296Z,36.38
2019-05-13T13:03:48.064Z,36.19
2019-05-13T13:09:24.737Z,36.24
2019-05-13T13:12:12.775Z,37.04
2019-05-13T13:15:20.438Z,35.95
2019-05-13T13:17:53.636Z,36.51
2019-05-13T13:20:42.150Z,36.29
2019-05-13T13:23:28.095Z,36.12
2019-05-13T13:26:16.434Z,36.40
2019-05-13T13:29:04.206Z,36.58
2019-05-13T13:31:55.328Z,37.19
2019-05-13T13:34:43.997Z,37.58
2019-05-13T13:37:33.776Z,36.92
2019-05-13T13:40:25.970Z,36.45
2019-05-13T13:43:08.518Z,36.66
2019-05-13T13:48:45.509Z,38.01
2019-05-13T13:51:34.382Z,38.20
2019-05-13T13:54:22.665Z,38.71
2019-05-13T13:57:13.388Z,39.26
2019-05-13T14:02:53.759Z,38.58
2019-05-13T14:05:39.066Z,37.19
2019-05-13T14:06:39.634Z,36.08
2019-05-13T14:07:12.890Z,39.07
2019-05-13T14:08:26.640Z,37.00
2019-05-13T14:11:14.162Z,37.19
2019-05-13T14:14:02.279Z,37.54
2019-05-13T14:16:51.873Z,37.80
2019-05-13T14:19:38.765Z,38.47
2019-05-13T14:22:26.069Z,38.83
2019-05-13T14:25:13.485Z,37.42
2019-05-13T14:28:01.099Z,37.61
2019-05-13T14:30:51.255Z,37.59
2019-05-13T14:33:37.883Z,37.25
2019-05-13T14:36:25.469Z,37.82
2019-05-13T14:39:12.841Z,37.41
2019-05-13T14:42:02.150Z,37.09
2019-05-13T14:44:51.881Z,37.36
2019-05-13T14:47:38.746Z,36.74
2019-05-13T14:50:25.825Z,35.73
2019-05-13T14:53:13.275Z,35.19
2019-05-13T14:56:03.035Z,35.04
2019-05-13T14:58:52.027Z,35.84
2019-05-13T15:01:41.333Z,35.81
2019-05-13T15:04:28.254Z,35.51
2019-05-13T15:07:15.974Z,35.75
2019-05-13T15:10:03.993Z,36.03
2019-05-13T15:12:52.550Z,36.12
2019-05-13T15:15:42.182Z,35.93
2019-05-13T15:18:32.268Z,36.07
2019-05-13T15:21:21.239Z,36.93
2019-05-13T15:24:08.173Z,37.46
2019-05-13T15:26:55.718Z,37.88
2019-05-13T15:29:43.415Z,38.09
2019-05-13T15:32:32.602Z,38.83
2019-05-13T15:35:19.854Z,38.52
2019-05-13T15:38:07.993Z,38.68
2019-05-13T15:40:55.744Z,38.83
2019-05-13T15:43:43.221Z,37.33
2019-05-13T15:46:32.312Z,36.74
2019-05-13T15:49:22.086Z,36.55
2019-05-13T15:52:11.751Z,36.88
2019-05-13T15:54:58.510Z,36.65
2019-05-13T15:57:46.351Z,36.52
2019-05-13T16:00:34.034Z,37.39
2019-05-13T16:03:21.565Z,37.30
2019-05-13T16:06:09.084Z,37.54
2019-05-13T16:08:56.872Z,37.86
2019-05-13T16:11:44.930Z,36.26
2019-05-13T16:14:32.174Z,35.62
2019-05-13T16:17:30.639Z,34.86
2019-05-13T16:20:08.972Z,34.51
2019-05-13T16:22:57.966Z,34.58
2019-05-13T16:25:47.613Z,34.40
2019-05-13T16:28:35.217Z,35.06
2019-05-13T16:31:22.646Z,34.54
2019-05-13T16:34:11.148Z,34.78
2019-05-13T16:37:01.643Z,34.99
2019-05-13T16:39:48.549Z,35.55
2019-05-13T16:42:35.933Z,35.99
2019-05-13T16:45:23.748Z,36.05
2019-05-13T16:48:12.329Z,36.12
2019-05-13T16:51:00.535Z,36.71
2019-05-13T16:53:52.316Z,36.52
2019-05-13T16:56:42.030Z,36.44
2019-05-13T16:59:29.042Z,36.55
2019-05-13T17:02:17.262Z,36.73
2019-05-13T17:05:05.318Z,36.99
2019-05-13T17:07:52.617Z,37.46
2019-05-13T17:10:41.882Z,37.82
2019-05-13T17:13:28.663Z,36.70
2019-05-13T17:16:15.783Z,36.77
2019-05-13T17:19:03.154Z,35.92
2019-05-13T17:21:52.013Z,36.21
2019-05-13T17:24:42.477Z,36.44
2019-05-13T17:27:28.885Z,36.81
2019-05-13T17:30:16.977Z,37.19
2019-05-13T17:33:04.492Z,37.04
2019-05-13T17:35:52.024Z,36.90
2019-05-13T17:38:39.365Z,37.40
2019-05-13T17:41:26.899Z,37.50
2019-05-13T17:44:14.331Z,37.46
2019-05-13T17:47:02.169Z,37.01
2019-05-13T17:49:52.167Z,37.67
2019-05-13T17:52:39.106Z,37.50
2019-05-13T17:55:26.839Z,37.84
2019-05-13T17:58:14.717Z,38.44
2019-05-13T18:01:02.422Z,38.53
2019-05-13T18:03:51.749Z,38.69
2019-05-13T18:06:41.713Z,38.59
2019-05-13T18:09:31.541Z,38.94
2019-05-13T18:12:18.364Z,38.88
2019-05-13T18:15:06.722Z,38.98
2019-05-13T18:17:53.817Z,39.11
2019-05-13T18:20:41.654Z,38.99
2019-05-13T18:23:28.960Z,38.69
2019-05-13T18:26:17.045Z,38.87
2019-05-13T18:29:04.740Z,39.10
2019-05-13T18:31:53.340Z,38.83
2019-05-13T18:34:41.675Z,39.11
2019-05-13T18:37:31.383Z,39.48
2019-05-13T18:40:18.913Z,39.88
2019-05-13T18:43:06.307Z,40.43
2019-05-13T18:45:54.789Z,40.30
2019-05-13T18:48:57.408Z,40.99
2019-05-13T18:51:31.673Z,40.89
2019-05-13T18:54:18.924Z,41.50
2019-05-13T18:57:06.582Z,41.92
2019-05-13T18:59:53.956Z,42.67
2019-05-13T19:02:41.632Z,42.27
2019-05-13T19:05:31.574Z,42.43
2019-05-13T19:08:18.455Z,43.45
2019-05-13T19:11:08.494Z,43.85
2019-05-13T19:14:02.717Z,43.86
2019-05-13T19:16:50.129Z,43.76
2019-05-13T19:19:37.742Z,43.80
2019-05-13T19:22:25.345Z,44.82
2019-05-13T19:25:13.241Z,44.65
2019-05-13T19:28:02.361Z,45.61
2019-05-13T19:30:51.556Z,45.73
2019-05-13T19:33:41.622Z,45.78
2019-05-13T19:36:30.640Z,45.68
2019-05-13T19:39:18.368Z,46.74
2019-05-13T19:42:06.241Z,45.99
2019-05-13T19:44:53.580Z,46.86
2019-05-13T19:47:43.896Z,46.64
2019-05-13T19:50:32.385Z,47.52
2019-05-13T19:53:21.842Z,47.50
2019-05-13T19:56:11.776Z,47.54
2019-05-13T19:59:01.366Z,47.83
2019-05-13T20:01:48.136Z,48.27
2019-05-13T20:04:35.606Z,48.24
2019-05-13T20:07:22.722Z,48.66
2019-05-13T20:10:11.870Z,49.30
2019-05-13T20:13:01.690Z,49.32
2019-05-13T20:15:48.801Z,49.00
2019-05-13T20:18:36.468Z,49.18
2019-05-13T20:21:23.561Z,49.60
2019-05-13T20:24:11.896Z,49.42
2019-05-13T20:27:01.355Z,50.18
2019-05-13T20:29:48.513Z,51.28
2019-05-13T20:32:36.057Z,50.70
2019-05-13T20:35:23.250Z,50.78
2019-05-13T20:38:11.643Z,50.73
2019-05-13T20:41:01.103Z,50.20
2019-05-13T20:43:48.102Z,50.81
2019-05-13T20:46:38.757Z,52.58
2019-05-13T20:49:27.747Z,51.39
2019-05-13T20:52:15.653Z,52.79
2019-05-13T20:55:03.568Z,52.78
2019-05-13T20:57:53.104Z,52.31
2019-05-13T21:00:42.376Z,52.41
2019-05-13T21:03:41.834Z,53.06
2019-05-13T21:06:32.063Z,53.20
2019-05-13T21:09:19.608Z,52.40
2019-05-13T21:12:11.880Z,52.22
2019-05-13T21:15:05.334Z,53.63
2019-05-13T21:17:54.668Z,52.83
2019-05-13T21:20:44.324Z,52.53
2019-05-13T21:23:36.050Z,53.95
2019-05-13T21:26:23.636Z,53.62
2019-05-13T21:29:12.034Z,54.26
2019-05-13T21:32:03.729Z,53.93
2019-05-13T21:34:51.724Z,53.99
2019-05-13T21:37:40.676Z,53.86
2019-05-13T21:40:31.974Z,53.81
2019-05-13T21:43:18.912Z,52.80
2019-05-13T21:46:08.823Z,52.84
2019-05-13T21:48:58.230Z,53.62
2019-05-13T21:51:52.876Z,54.21
2019-05-13T21:54:42.210Z,54.84
2019-05-13T21:57:33.046Z,53.98
2019-05-13T22:00:25.097Z,53.94
2019-05-13T22:03:14.788Z,54.85
2019-05-13T22:06:18.536Z,53.76
2019-05-13T22:09:11.512Z,55.18
2019-05-13T22:11:58.532Z,55.63
2019-05-13T22:14:46.164Z,54.64
2019-05-13T22:17:33.197Z,54.16
2019-05-13T22:20:21.330Z,54.68
2019-05-13T22:23:11.788Z,54.61
2019-05-13T22:25:58.548Z,55.17
2019-05-13T22:28:45.972Z,55.23
2019-05-13T22:31:33.331Z,54.57
2019-05-13T22:34:21.163Z,55.16
2019-05-13T22:37:11.486Z,54.32
2019-05-13T22:39:57.879Z,55.27
2019-05-13T22:42:45.404Z,54.55
2019-05-13T22:45:33.101Z,54.73
2019-05-13T22:48:22.316Z,55.59
2019-05-13T22:51:11.808Z,54.72
2019-05-13T22:53:59.343Z,55.52
2019-05-13T22:56:46.807Z,56.37
2019-05-13T22:59:33.872Z,55.91
2019-05-13T23:02:22.113Z,55.53
2019-05-13T23:05:11.277Z,55.98
2019-05-13T23:07:58.840Z,55.30
2019-05-13T23:10:46.206Z,53.12
2019-05-13T23:13:33.546Z,53.87
2019-05-13T23:16:22.206Z,53.19
2019-05-13T23:19:11.142Z,53.69
2019-05-13T23:22:01.609Z,52.87
2019-05-13T23:24:48.623Z,53.18
2019-05-13T23:27:36.187Z,53.15
2019-05-13T23:30:23.939Z,53.14
2019-05-13T23:33:11.739Z,53.75
2019-05-13T23:36:01.356Z,54.42
2019-05-13T23:38:48.965Z,53.41
2019-05-13T23:41:36.576Z,53.76
2019-05-13T23:44:27.994Z,53.74
2019-05-13T23:47:13.472Z,53.74
2019-05-13T23:50:02.012Z,53.35
2019-05-13T23:52:51.191Z,53.22
2019-05-13T23:55:38.592Z,53.29
2019-05-13T23:58:26.188Z,53.68
